Chicago, Illinois
Traffic Map
Current Weather Conditions
Chicago, Illinois
Overcast
Overcast
71°
Feels Like: 71°
Wind Chill: 71° Ceiling: 30000
Heat Index: 71° Visibility: 10mi
Dew Point: 64° Wind: 12mph
Humidity: 78% Direction: 200° (SSW)
Pressure: 29.9in Gusts: 0mph
Raw Report DataKMDW 270753Z 20010KT 10SM SCT240 OVC300 22/18 A2990 RMK AO2 SLP114 T02170178
Traffic Incident Summary
Active as of:
Severity:
Category:
InformationThere was an issue retrieving the traffic information for this location. Please try a different location or try again shortly.
Advertisements
Track Severe Weather on mobile